createdAt,value
2022-08-24T00:00:58.495Z,21.61
2022-08-24T00:01:58.701Z,21.59
2022-08-24T00:02:58.626Z,21.55
2022-08-24T00:03:59.583Z,21.64
2022-08-24T00:04:58.425Z,21.56
2022-08-24T00:05:58.406Z,21.64
2022-08-24T00:06:58.405Z,21.64
2022-08-24T00:07:59.300Z,21.64
2022-08-24T00:08:58.387Z,21.51
2022-08-24T00:09:58.378Z,21.48
2022-08-24T00:10:58.360Z,21.51
2022-08-24T00:11:59.276Z,21.46
2022-08-24T00:12:58.359Z,21.37
2022-08-24T00:13:58.321Z,21.36
2022-08-24T00:14:58.313Z,21.36
2022-08-24T00:15:58.295Z,21.28
2022-08-24T00:16:58.354Z,21.27
2022-08-24T00:17:59.282Z,21.27
2022-08-24T00:18:59.385Z,21.21
2022-08-24T00:19:58.283Z,21.18
2022-08-24T00:20:58.742Z,21.13
2022-08-24T00:21:58.235Z,21.13
2022-08-24T00:22:58.218Z,21.11
2022-08-24T00:23:58.235Z,21.06
2022-08-24T00:24:58.212Z,21.06
2022-08-24T00:25:58.197Z,21.06
2022-08-24T00:26:58.199Z,21.13
2022-08-24T00:28:04.970Z,21.15
2022-08-24T00:28:58.191Z,21.05
2022-08-24T00:29:58.321Z,21.11
2022-08-24T00:30:58.144Z,21.11
2022-08-24T00:31:58.207Z,21.09
2022-08-24T00:32:58.127Z,21.06
2022-08-24T00:33:58.741Z,21.03
2022-08-24T00:34:59.157Z,21.11
2022-08-24T00:35:58.093Z,21.13
2022-08-24T00:36:58.076Z,21.11
2022-08-24T00:37:58.113Z,21.06
2022-08-24T00:38:58.045Z,21.11
2022-08-24T00:39:58.177Z,21.08
2022-08-24T00:40:58.746Z,21.01
2022-08-24T00:41:58.020Z,21.00
2022-08-24T00:42:58.024Z,20.94
2022-08-24T00:43:58.015Z,21.03
2022-08-24T00:44:57.989Z,20.94
2022-08-24T00:45:58.312Z,21.00
2022-08-24T00:46:57.967Z,20.91
2022-08-24T00:48:00.754Z,20.85
2022-08-24T00:48:57.953Z,20.94
2022-08-24T00:49:58.757Z,20.82
2022-08-24T00:50:57.954Z,20.78
2022-08-24T00:51:57.926Z,20.76
2022-08-24T00:53:00.748Z,20.81
2022-08-24T00:53:57.890Z,20.79
2022-08-24T00:54:57.890Z,20.79
2022-08-24T00:55:57.877Z,20.81
2022-08-24T00:56:57.879Z,20.73
2022-08-24T00:57:57.845Z,20.78
2022-08-24T00:58:57.849Z,20.76
2022-08-24T00:59:57.815Z,20.76
2022-08-24T01:00:57.965Z,20.78
2022-08-24T01:01:57.836Z,20.82
2022-08-24T01:02:58.847Z,20.81
2022-08-24T01:03:57.778Z,20.93
2022-08-24T01:04:57.781Z,20.91
2022-08-24T01:05:57.748Z,20.82
2022-08-24T01:06:57.748Z,20.79
2022-08-24T01:07:57.844Z,20.83
2022-08-24T01:08:58.253Z,20.78
2022-08-24T01:10:00.279Z,20.79
2022-08-24T01:10:57.709Z,20.78
2022-08-24T01:11:57.732Z,20.83
2022-08-24T01:13:00.990Z,20.81
2022-08-24T01:13:58.253Z,20.73
2022-08-24T01:15:00.256Z,20.76
2022-08-24T01:15:57.700Z,20.72
2022-08-24T01:16:57.641Z,20.66
2022-08-24T01:17:57.714Z,20.64
2022-08-24T01:18:57.642Z,20.64
2022-08-24T01:19:57.616Z,20.56
2022-08-24T01:20:57.602Z,20.66
2022-08-24T01:21:57.596Z,20.57
2022-08-24T01:22:57.568Z,20.61
2022-08-24T01:23:57.792Z,20.69
2022-08-24T01:24:57.559Z,20.71
2022-08-24T01:25:57.575Z,20.68
2022-08-24T01:26:57.536Z,20.76
2022-08-24T01:27:57.583Z,20.82
2022-08-24T01:28:57.789Z,20.79
2022-08-24T01:29:57.505Z,20.78
2022-08-24T01:30:57.577Z,20.79
2022-08-24T01:31:57.481Z,20.81
2022-08-24T01:32:57.471Z,20.78
2022-08-24T01:33:57.457Z,20.79
2022-08-24T01:34:57.455Z,20.78
2022-08-24T01:35:57.443Z,20.72
2022-08-24T01:36:57.421Z,20.76
2022-08-24T01:37:57.411Z,20.73
2022-08-24T01:38:57.796Z,20.79
2022-08-24T01:39:57.454Z,20.91
2022-08-24T01:40:57.383Z,20.82
2022-08-24T01:41:58.258Z,20.82
2022-08-24T01:42:57.372Z,20.82
2022-08-24T01:43:57.348Z,20.79
2022-08-24T01:44:57.358Z,20.78
2022-08-24T01:45:57.342Z,20.71
2022-08-24T01:46:57.372Z,20.69
2022-08-24T01:47:57.384Z,20.64
2022-08-24T01:48:57.299Z,20.69
2022-08-24T01:49:57.305Z,20.66
2022-08-24T01:50:57.303Z,20.66
2022-08-24T01:51:57.245Z,20.71
2022-08-24T01:53:05.761Z,20.75
2022-08-24T01:53:58.764Z,20.68
2022-08-24T01:54:57.233Z,20.68
2022-08-24T01:55:57.226Z,20.63
2022-08-24T01:56:57.227Z,20.71
2022-08-24T01:57:57.198Z,20.66
2022-08-24T01:58:57.196Z,20.64
2022-08-24T01:59:57.779Z,20.61
2022-08-24T02:00:57.183Z,20.54
2022-08-24T02:01:57.244Z,20.54
2022-08-24T02:02:57.323Z,20.51
2022-08-24T02:03:57.136Z,20.42
2022-08-24T02:04:57.126Z,20.50
2022-08-24T02:05:57.115Z,20.41
2022-08-24T02:06:57.127Z,20.38
2022-08-24T02:07:57.083Z,20.46
2022-08-24T02:08:59.781Z,20.34
2022-08-24T02:09:57.066Z,20.35
2022-08-24T02:10:58.086Z,20.23
2022-08-24T02:11:57.062Z,20.23
2022-08-24T02:12:57.350Z,20.31
2022-08-24T02:13:57.027Z,20.27
2022-08-24T02:14:57.017Z,20.30
2022-08-24T02:15:57.037Z,20.23
2022-08-24T02:16:56.992Z,20.22
2022-08-24T02:17:57.012Z,20.25
2022-08-24T02:18:56.964Z,20.31
2022-08-24T02:19:57.773Z,20.19
2022-08-24T02:20:56.944Z,20.04
2022-08-24T02:21:56.934Z,19.98
2022-08-24T02:22:56.972Z,20.04
2022-08-24T02:23:56.934Z,19.92
2022-08-24T02:24:56.901Z,19.86
2022-08-24T02:25:56.895Z,19.92
2022-08-24T02:26:56.880Z,19.95
2022-08-24T02:27:56.870Z,19.86
2022-08-24T02:28:56.870Z,19.85
2022-08-24T02:29:56.847Z,19.76
2022-08-24T02:30:56.870Z,19.82
2022-08-24T02:31:56.831Z,19.80
2022-08-24T02:32:56.811Z,19.82
2022-08-24T02:33:56.828Z,19.92
2022-08-24T02:34:56.763Z,19.87
2022-08-24T02:35:56.781Z,19.87
2022-08-24T02:36:56.773Z,19.86
2022-08-24T02:37:56.742Z,19.79
2022-08-24T02:38:56.768Z,19.82
2022-08-24T02:39:56.743Z,19.80
2022-08-24T02:41:03.273Z,19.72
2022-08-24T02:41:56.718Z,19.87
2022-08-24T02:42:56.700Z,19.79
2022-08-24T02:43:56.678Z,19.80
2022-08-24T02:44:56.678Z,19.83
2022-08-24T02:45:56.679Z,19.85
2022-08-24T02:46:56.676Z,19.79
2022-08-24T02:47:56.636Z,19.75
2022-08-24T02:48:56.655Z,19.79
2022-08-24T02:49:57.628Z,19.71
2022-08-24T02:50:56.610Z,19.78
2022-08-24T02:51:56.593Z,19.71
2022-08-24T02:52:56.624Z,19.75
2022-08-24T02:53:56.591Z,19.78
2022-08-24T02:54:56.565Z,19.70
2022-08-24T02:55:56.547Z,19.70
2022-08-24T02:56:56.548Z,19.68
2022-08-24T02:57:56.547Z,19.76
2022-08-24T02:58:59.276Z,19.67
2022-08-24T02:59:56.501Z,19.60
2022-08-24T03:00:56.505Z,19.61
2022-08-24T03:01:56.523Z,19.52
2022-08-24T03:02:56.557Z,19.53
2022-08-24T03:03:59.275Z,19.52
2022-08-24T03:04:56.498Z,19.55
2022-08-24T03:05:56.429Z,19.52
2022-08-24T03:06:57.287Z,19.49
2022-08-24T03:07:56.419Z,19.46
2022-08-24T03:08:56.968Z,19.49
2022-08-24T03:09:56.420Z,19.55
2022-08-24T03:10:56.385Z,19.45
2022-08-24T03:11:56.383Z,19.57
2022-08-24T03:12:59.028Z,19.47
2022-08-24T03:13:56.361Z,19.58
2022-08-24T03:14:56.377Z,19.58
2022-08-24T03:15:56.352Z,19.46
2022-08-24T03:16:56.325Z,19.47
2022-08-24T03:17:56.304Z,19.46
2022-08-24T03:18:57.278Z,19.47
2022-08-24T03:20:03.276Z,19.49
2022-08-24T03:20:56.301Z,19.42
2022-08-24T03:21:56.300Z,19.39
2022-08-24T03:23:02.925Z,19.35
2022-08-24T03:23:56.238Z,19.49
2022-08-24T03:24:56.239Z,19.40
2022-08-24T03:25:56.222Z,19.38
2022-08-24T03:26:56.315Z,19.39
2022-08-24T03:27:56.217Z,19.42
2022-08-24T03:28:56.790Z,19.38
2022-08-24T03:29:56.174Z,19.34
2022-08-24T03:30:56.181Z,19.39
2022-08-24T03:31:56.165Z,19.35
2022-08-24T03:32:56.787Z,19.38
2022-08-24T03:33:56.134Z,19.31
2022-08-24T03:35:02.784Z,19.34
2022-08-24T03:35:56.123Z,19.27
2022-08-24T03:36:56.336Z,19.30
2022-08-24T03:37:58.778Z,19.31
2022-08-24T03:38:56.789Z,19.28
2022-08-24T03:39:56.172Z,19.31
2022-08-24T03:40:56.779Z,19.23
2022-08-24T03:41:56.052Z,19.32
2022-08-24T03:42:56.063Z,19.30
2022-08-24T03:43:56.310Z,19.21
2022-08-24T03:44:56.018Z,19.13
2022-08-24T03:45:56.051Z,19.13
2022-08-24T03:46:56.816Z,19.10
2022-08-24T03:47:56.326Z,19.15
2022-08-24T03:48:55.977Z,19.15
2022-08-24T03:49:56.118Z,19.10
2022-08-24T03:50:55.949Z,19.06
2022-08-24T03:51:56.134Z,19.09
2022-08-24T03:52:55.931Z,18.99
2022-08-24T03:53:56.312Z,18.94
2022-08-24T03:54:56.940Z,18.99
2022-08-24T03:55:55.915Z,18.99
2022-08-24T03:56:58.791Z,18.99
2022-08-24T03:57:55.885Z,19.02
2022-08-24T03:58:55.885Z,18.99
2022-08-24T03:59:55.881Z,19.05
2022-08-24T04:00:56.070Z,18.99
2022-08-24T04:01:55.988Z,18.96
2022-08-24T04:02:55.864Z,19.01
2022-08-24T04:03:55.801Z,18.99
2022-08-24T04:04:55.825Z,19.01
2022-08-24T04:05:55.797Z,18.97
2022-08-24T04:06:55.810Z,19.02
2022-08-24T04:07:56.287Z,18.97
2022-08-24T04:09:02.286Z,18.97
2022-08-24T04:09:55.778Z,18.97
2022-08-24T04:10:55.730Z,18.97
2022-08-24T04:11:55.748Z,18.91
2022-08-24T04:12:55.705Z,18.93
2022-08-24T04:13:55.715Z,18.99
2022-08-24T04:14:55.704Z,18.94
2022-08-24T04:15:55.741Z,19.01
2022-08-24T04:16:57.886Z,18.96
2022-08-24T04:17:55.698Z,18.99
2022-08-24T04:18:56.298Z,18.99
2022-08-24T04:19:55.644Z,19.01
2022-08-24T04:20:55.651Z,18.94
2022-08-24T04:21:55.814Z,18.97
2022-08-24T04:22:55.649Z,18.94
2022-08-24T04:23:55.619Z,18.97
2022-08-24T04:24:55.590Z,18.94
2022-08-24T04:25:55.602Z,18.91
2022-08-24T04:27:02.295Z,18.93
2022-08-24T04:27:55.575Z,18.79
2022-08-24T04:28:55.559Z,18.87
2022-08-24T04:29:55.537Z,18.83
2022-08-24T04:30:55.559Z,18.86
2022-08-24T04:31:55.613Z,18.94
2022-08-24T04:32:55.542Z,18.87
2022-08-24T04:33:55.489Z,18.90
2022-08-24T04:34:55.490Z,18.90
2022-08-24T04:35:55.476Z,18.82
2022-08-24T04:36:55.462Z,18.90
2022-08-24T04:37:55.472Z,18.91
2022-08-24T04:38:55.445Z,18.93
2022-08-24T04:39:55.498Z,18.96
2022-08-24T04:40:55.423Z,18.93
2022-08-24T04:41:57.505Z,18.94
2022-08-24T04:42:56.419Z,18.90
2022-08-24T04:43:55.392Z,18.97
2022-08-24T04:44:55.387Z,18.94
2022-08-24T04:45:56.438Z,18.94
2022-08-24T04:46:55.361Z,18.96
2022-08-24T04:47:55.372Z,18.91
2022-08-24T04:48:56.284Z,18.96
2022-08-24T04:49:55.351Z,18.99
2022-08-24T04:50:55.313Z,18.91
2022-08-24T04:51:56.299Z,18.89
2022-08-24T04:52:55.298Z,18.91
2022-08-24T04:53:55.314Z,18.93
2022-08-24T04:54:55.283Z,18.94
2022-08-24T04:55:57.801Z,18.94
2022-08-24T04:56:55.267Z,18.94
2022-08-24T04:57:55.245Z,18.99
2022-08-24T04:58:55.254Z,18.94
2022-08-24T04:59:55.223Z,19.02
2022-08-24T05:00:55.300Z,18.99
2022-08-24T05:01:55.279Z,18.94
2022-08-24T05:02:56.229Z,19.05
2022-08-24T05:03:55.204Z,19.15
2022-08-24T05:04:55.193Z,19.12
2022-08-24T05:05:57.794Z,19.06
2022-08-24T05:06:55.209Z,19.12
2022-08-24T05:07:56.696Z,19.15
2022-08-24T05:08:55.143Z,19.13
2022-08-24T05:09:55.117Z,19.10
2022-08-24T05:10:56.101Z,19.21
2022-08-24T05:11:55.098Z,19.12
2022-08-24T05:12:55.094Z,19.13
2022-08-24T05:13:55.088Z,19.09
2022-08-24T05:14:55.090Z,19.13
2022-08-24T05:15:55.094Z,19.24
2022-08-24T05:16:56.110Z,19.30
2022-08-24T05:17:56.290Z,19.28
2022-08-24T05:18:55.815Z,19.31
2022-08-24T05:19:55.010Z,19.25
2022-08-24T05:20:54.995Z,19.31
2022-08-24T05:21:54.991Z,19.23
2022-08-24T05:22:59.970Z,19.27
2022-08-24T05:23:54.990Z,19.39
2022-08-24T05:24:57.799Z,19.34
2022-08-24T05:25:57.800Z,19.34
2022-08-24T05:26:54.950Z,19.39
2022-08-24T05:27:54.931Z,19.34
2022-08-24T05:28:54.916Z,19.38
2022-08-24T05:29:56.972Z,19.34
2022-08-24T05:30:54.893Z,19.43
2022-08-24T05:31:54.908Z,19.35
2022-08-24T05:32:54.872Z,19.46
2022-08-24T05:33:54.864Z,19.43
2022-08-24T05:34:54.851Z,19.46
2022-08-24T05:35:55.337Z,19.43
2022-08-24T05:36:54.859Z,19.57
2022-08-24T05:37:54.817Z,19.53
2022-08-24T05:38:54.807Z,19.55
2022-08-24T05:39:54.846Z,19.57
2022-08-24T05:40:54.795Z,19.61
2022-08-24T05:41:54.778Z,19.65
2022-08-24T05:42:54.785Z,19.64
2022-08-24T05:43:57.305Z,19.67
2022-08-24T05:44:54.747Z,19.65
2022-08-24T05:45:54.740Z,19.76
2022-08-24T05:46:54.893Z,19.71
2022-08-24T05:47:54.717Z,19.68
2022-08-24T05:48:54.692Z,19.75
2022-08-24T05:49:55.306Z,19.78
2022-08-24T05:50:55.304Z,19.78
2022-08-24T05:51:54.672Z,19.83
2022-08-24T05:52:54.682Z,19.90
2022-08-24T05:53:54.696Z,19.87
2022-08-24T05:54:54.634Z,19.90
2022-08-24T05:55:55.314Z,19.94
2022-08-24T05:56:54.617Z,19.92
2022-08-24T05:57:54.609Z,19.90
2022-08-24T05:58:54.615Z,19.95
2022-08-24T05:59:55.342Z,19.92
2022-08-24T06:00:54.568Z,20.04
2022-08-24T06:01:54.711Z,20.04
2022-08-24T06:02:54.626Z,19.98
2022-08-24T06:03:54.573Z,19.97
2022-08-24T06:04:55.306Z,20.12
2022-08-24T06:05:55.311Z,20.08
2022-08-24T06:06:54.505Z,20.07
2022-08-24T06:07:55.316Z,20.13
2022-08-24T06:08:54.492Z,20.08
2022-08-24T06:09:54.500Z,20.16
2022-08-24T06:10:54.472Z,20.23
2022-08-24T06:11:55.310Z,20.22
2022-08-24T06:12:54.447Z,20.22
2022-08-24T06:13:59.307Z,20.22
2022-08-24T06:14:54.829Z,20.26
2022-08-24T06:16:19.631Z,20.27
2022-08-24T06:16:56.569Z,20.31
2022-08-24T06:17:54.566Z,20.30
2022-08-24T06:18:54.411Z,20.41
2022-08-24T06:19:54.390Z,20.44
2022-08-24T06:20:57.246Z,20.44
2022-08-24T06:21:54.362Z,20.44
2022-08-24T06:22:54.335Z,20.50
2022-08-24T06:23:54.326Z,20.56
2022-08-24T06:24:54.346Z,20.48
2022-08-24T06:25:56.815Z,20.60
2022-08-24T06:26:54.807Z,20.48
2022-08-24T06:27:54.296Z,20.54
2022-08-24T06:28:54.271Z,20.60
2022-08-24T06:30:15.308Z,20.57
2022-08-24T06:30:54.283Z,20.66
2022-08-24T06:31:56.880Z,20.68
2022-08-24T06:32:54.237Z,20.75
2022-08-24T06:33:54.227Z,20.68
2022-08-24T06:34:54.206Z,20.81
2022-08-24T06:35:54.226Z,20.75
2022-08-24T06:36:54.192Z,20.88
2022-08-24T06:37:54.181Z,20.94
2022-08-24T06:38:54.155Z,20.90
2022-08-24T06:39:54.907Z,20.96
2022-08-24T06:40:54.810Z,20.96
2022-08-24T06:41:54.149Z,20.94
2022-08-24T06:42:54.818Z,20.93
2022-08-24T06:43:54.813Z,21.03
2022-08-24T06:44:54.110Z,21.06
2022-08-24T06:45:54.343Z,21.11
2022-08-24T06:46:54.117Z,21.05
2022-08-24T06:47:54.067Z,21.15
2022-08-24T06:48:54.810Z,21.27
2022-08-24T06:49:56.830Z,21.15
2022-08-24T06:50:54.043Z,21.21
2022-08-24T06:51:54.029Z,21.26
2022-08-24T06:52:54.818Z,21.30
2022-08-24T06:53:54.017Z,21.21
2022-08-24T06:54:53.983Z,21.18
2022-08-24T06:55:53.989Z,21.36
2022-08-24T06:56:53.965Z,21.37
2022-08-24T06:57:53.964Z,21.40
2022-08-24T06:58:53.975Z,21.52
2022-08-24T06:59:53.939Z,21.49
2022-08-24T07:00:53.920Z,21.52
2022-08-24T07:01:53.942Z,21.59
2022-08-24T07:02:53.960Z,21.63
2022-08-24T07:03:53.883Z,21.63
2022-08-24T07:04:54.347Z,21.68
2022-08-24T07:05:53.859Z,21.73
2022-08-24T07:06:53.875Z,21.74
2022-08-24T07:07:53.855Z,21.77
2022-08-24T07:08:53.827Z,21.81
2022-08-24T07:09:53.825Z,21.86
2022-08-24T07:10:53.848Z,21.93
2022-08-24T07:12:00.336Z,21.86
2022-08-24T07:12:54.316Z,22.02
2022-08-24T07:13:53.785Z,22.01
2022-08-24T07:14:53.763Z,22.11
2022-08-24T07:15:53.818Z,22.06
2022-08-24T07:16:53.756Z,22.15
2022-08-24T07:17:53.728Z,22.21
2022-08-24T07:18:53.839Z,22.20
2022-08-24T07:19:53.714Z,22.24
2022-08-24T07:20:53.741Z,22.29
2022-08-24T07:21:54.316Z,22.27
2022-08-24T07:22:53.691Z,22.23
2022-08-24T07:23:53.669Z,22.31
2022-08-24T07:24:56.330Z,22.30
2022-08-24T07:25:56.322Z,22.41
2022-08-24T07:26:53.861Z,22.45
2022-08-24T07:27:53.628Z,22.54
2022-08-24T07:28:54.324Z,22.57
2022-08-24T07:30:26.424Z,22.48
2022-08-24T07:30:54.675Z,22.54
2022-08-24T07:31:54.331Z,22.57
2022-08-24T07:32:53.610Z,22.56
2022-08-24T07:33:53.562Z,22.60
2022-08-24T07:34:53.560Z,22.57
2022-08-24T07:35:55.117Z,22.69
2022-08-24T07:36:53.552Z,22.75
2022-08-24T07:38:01.605Z,22.86
2022-08-24T07:38:54.505Z,22.89
2022-08-24T07:39:53.600Z,22.88
2022-08-24T07:41:20.316Z,22.93
2022-08-24T07:42:13.327Z,22.94
2022-08-24T07:42:57.326Z,22.88
2022-08-24T07:43:53.479Z,23.03
2022-08-24T07:44:53.453Z,23.07
2022-08-24T07:45:54.380Z,23.01
2022-08-24T07:46:53.506Z,23.03
2022-08-24T07:47:55.809Z,23.09
2022-08-24T07:49:04.960Z,23.06
2022-08-24T07:49:54.392Z,23.14
2022-08-24T07:50:53.382Z,23.15
2022-08-24T07:51:53.379Z,23.23
2022-08-24T07:52:54.377Z,23.29
2022-08-24T07:53:54.379Z,23.29
2022-08-24T07:54:54.378Z,23.31
2022-08-24T07:55:53.320Z,23.32
2022-08-24T07:56:53.319Z,23.38
2022-08-24T07:57:53.314Z,23.38
2022-08-24T07:58:55.833Z,23.42
2022-08-24T07:59:53.298Z,23.45
2022-08-24T08:00:53.295Z,23.49
2022-08-24T08:01:53.292Z,23.52
2022-08-24T08:02:53.286Z,23.45
2022-08-24T08:03:53.275Z,23.47
2022-08-24T08:04:55.829Z,23.60
2022-08-24T08:05:53.228Z,23.60
2022-08-24T08:06:53.323Z,23.64
2022-08-24T08:07:53.829Z,23.71
2022-08-24T08:08:53.174Z,23.69
2022-08-24T08:09:53.201Z,23.79
2022-08-24T08:10:53.166Z,23.97
2022-08-24T08:11:53.170Z,23.87
2022-08-24T08:12:53.120Z,23.99
2022-08-24T08:13:55.827Z,23.93
2022-08-24T08:14:53.364Z,23.96
2022-08-24T08:15:57.970Z,23.96
2022-08-24T08:16:54.092Z,24.11
2022-08-24T08:17:55.702Z,24.09
2022-08-24T08:19:09.379Z,24.04
2022-08-24T08:19:54.362Z,24.09
2022-08-24T08:20:53.056Z,24.12
2022-08-24T08:21:53.042Z,24.16
2022-08-24T08:22:53.035Z,24.15
2022-08-24T08:23:53.018Z,24.26
2022-08-24T08:24:53.007Z,24.29
2022-08-24T08:25:53.037Z,24.27
2022-08-24T08:26:52.991Z,24.30
2022-08-24T08:27:52.983Z,24.30
2022-08-24T08:28:52.992Z,24.33
2022-08-24T08:29:53.834Z,24.36
2022-08-24T08:30:53.047Z,24.36
2022-08-24T08:31:52.934Z,24.42
2022-08-24T08:32:52.930Z,24.48
2022-08-24T08:33:52.918Z,24.49
2022-08-24T08:34:53.381Z,24.51
2022-08-24T08:35:53.832Z,24.51
2022-08-24T08:36:52.899Z,24.59
2022-08-24T08:37:52.912Z,24.60
2022-08-24T08:38:53.841Z,24.75
2022-08-24T08:39:52.884Z,24.75
2022-08-24T08:40:52.850Z,24.82
2022-08-24T08:41:52.836Z,24.92
2022-08-24T08:42:53.334Z,24.98
2022-08-24T08:43:52.839Z,24.98
2022-08-24T08:44:53.340Z,25.02
2022-08-24T08:45:55.398Z,25.07
2022-08-24T08:46:53.808Z,25.08
2022-08-24T08:47:52.797Z,25.07
2022-08-24T08:48:52.795Z,25.02
2022-08-24T08:49:52.762Z,25.02
2022-08-24T08:50:52.739Z,25.09
2022-08-24T08:51:52.744Z,25.08
2022-08-24T08:52:52.739Z,25.09
2022-08-24T08:53:52.717Z,25.05
2022-08-24T08:54:55.343Z,25.08
2022-08-24T08:55:53.444Z,25.09
2022-08-24T08:56:57.292Z,25.09
2022-08-24T08:57:53.708Z,25.12
2022-08-24T08:58:57.167Z,25.08
2022-08-24T08:59:53.638Z,25.09
2022-08-24T09:00:52.646Z,25.08
2022-08-24T09:01:52.682Z,25.12
2022-08-24T09:02:52.606Z,25.16
2022-08-24T09:03:52.700Z,25.27
2022-08-24T09:04:52.674Z,25.29
2022-08-24T09:05:52.615Z,25.29
2022-08-24T09:06:52.585Z,25.35
2022-08-24T09:07:53.678Z,25.42
2022-08-24T09:08:55.345Z,25.42
2022-08-24T09:09:52.536Z,25.54
2022-08-24T09:10:52.513Z,25.54
2022-08-24T09:11:52.506Z,25.61
2022-08-24T09:12:52.498Z,25.63
2022-08-24T09:13:52.551Z,25.67
2022-08-24T09:14:53.346Z,25.63
2022-08-24T09:15:53.245Z,25.72
2022-08-24T09:16:53.553Z,25.85
2022-08-24T09:17:52.461Z,26.03
2022-08-24T09:18:52.887Z,26.16
2022-08-24T09:19:52.427Z,26.13
2022-08-24T09:20:53.420Z,26.17
2022-08-24T09:21:54.271Z,26.21
2022-08-24T09:22:52.391Z,26.38
2022-08-24T09:23:52.369Z,26.31
2022-08-24T09:24:52.897Z,26.36
2022-08-24T09:25:52.364Z,26.32
2022-08-24T09:26:52.376Z,26.44
2022-08-24T09:27:52.338Z,26.54
2022-08-24T09:28:52.329Z,26.50
2022-08-24T09:29:52.306Z,26.71
2022-08-24T09:30:54.942Z,26.68
2022-08-24T09:31:52.314Z,26.72
2022-08-24T09:32:52.290Z,26.71
2022-08-24T09:33:54.845Z,26.84
2022-08-24T09:34:53.293Z,26.96
2022-08-24T09:35:52.266Z,27.06
2022-08-24T09:36:52.849Z,27.28
2022-08-24T09:37:52.239Z,27.25
2022-08-24T09:38:52.421Z,27.23
2022-08-24T09:39:52.892Z,27.23
2022-08-24T09:40:52.191Z,27.27
2022-08-24T09:41:52.200Z,27.25
2022-08-24T09:42:52.178Z,27.25
2022-08-24T09:43:52.381Z,27.30
2022-08-24T09:44:52.163Z,27.42
2022-08-24T09:45:52.143Z,27.50
2022-08-24T09:46:52.155Z,27.63
2022-08-24T09:47:52.119Z,27.72
2022-08-24T09:48:52.117Z,27.72
2022-08-24T09:49:52.090Z,27.90
2022-08-24T09:50:52.103Z,27.83
2022-08-24T09:51:52.079Z,27.83
2022-08-24T09:52:52.072Z,27.87
2022-08-24T09:53:52.065Z,27.88
2022-08-24T09:54:54.854Z,27.95
2022-08-24T09:55:52.038Z,27.90
2022-08-24T09:56:59.864Z,27.84
2022-08-24T09:58:01.512Z,27.96
2022-08-24T09:58:53.004Z,27.93
2022-08-24T09:59:53.005Z,27.99
2022-08-24T10:00:52.018Z,28.05
2022-08-24T10:01:51.999Z,27.98
2022-08-24T10:02:54.863Z,27.99
2022-08-24T10:03:51.942Z,28.02
2022-08-24T10:04:52.038Z,28.17
2022-08-24T10:05:52.037Z,28.24
2022-08-24T10:06:51.941Z,28.30
2022-08-24T10:07:51.913Z,28.33
2022-08-24T10:08:52.389Z,28.38
2022-08-24T10:09:52.881Z,28.36
2022-08-24T10:10:51.878Z,28.46
2022-08-24T10:11:51.863Z,28.48
2022-08-24T10:12:56.137Z,28.57
2022-08-24T10:13:58.359Z,28.54
2022-08-24T10:14:52.892Z,28.51
2022-08-24T10:15:51.807Z,28.61
2022-08-24T10:16:51.886Z,28.69
2022-08-24T10:17:52.365Z,28.72
2022-08-24T10:18:52.849Z,28.74
2022-08-24T10:19:51.782Z,28.88
2022-08-24T10:20:51.897Z,29.02
2022-08-24T10:21:51.758Z,29.02
2022-08-24T10:22:51.751Z,29.17
2022-08-24T10:23:52.357Z,29.07
2022-08-24T10:24:51.728Z,29.11
2022-08-24T10:25:51.740Z,29.12
2022-08-24T10:26:51.707Z,29.03
2022-08-24T10:27:51.691Z,29.11
2022-08-24T10:28:51.688Z,29.12
2022-08-24T10:29:51.693Z,29.26
2022-08-24T10:30:51.666Z,29.21
2022-08-24T10:31:51.723Z,29.44
2022-08-24T10:32:51.642Z,29.30
2022-08-24T10:33:53.391Z,29.39
2022-08-24T10:34:51.619Z,29.33
2022-08-24T10:35:51.610Z,29.44
2022-08-24T10:36:51.594Z,29.54
2022-08-24T10:37:51.615Z,29.57
2022-08-24T10:38:51.572Z,29.51
2022-08-24T10:39:51.669Z,29.44
2022-08-24T10:40:51.559Z,29.44
2022-08-24T10:41:51.576Z,29.30
2022-08-24T10:42:51.554Z,29.27
2022-08-24T10:43:51.521Z,29.27
2022-08-24T10:44:51.530Z,29.33
2022-08-24T10:45:54.469Z,29.36
2022-08-24T10:46:55.447Z,29.54
2022-08-24T10:47:52.515Z,29.64
2022-08-24T10:48:51.469Z,29.52
2022-08-24T10:49:51.462Z,29.55
2022-08-24T10:50:51.444Z,29.66
2022-08-24T10:51:54.390Z,29.55
2022-08-24T10:52:51.425Z,29.67
2022-08-24T10:53:51.447Z,29.81
2022-08-24T10:54:51.405Z,29.89
2022-08-24T10:55:51.385Z,30.00
2022-08-24T10:56:51.387Z,29.95
2022-08-24T10:57:51.373Z,30.00
2022-08-24T10:58:51.400Z,30.10
2022-08-24T10:59:51.373Z,30.10
2022-08-24T11:00:51.359Z,29.97
2022-08-24T11:01:53.901Z,29.88
2022-08-24T11:02:51.325Z,29.89
2022-08-24T11:03:51.302Z,29.81
2022-08-24T11:04:51.296Z,29.81
2022-08-24T11:05:51.297Z,29.81
2022-08-24T11:06:51.284Z,29.86
2022-08-24T11:07:51.272Z,29.91
2022-08-24T11:08:51.263Z,29.88
2022-08-24T11:09:51.263Z,29.94
2022-08-24T11:10:51.230Z,29.84
2022-08-24T11:11:51.222Z,29.57
2022-08-24T11:12:51.243Z,29.62
2022-08-24T11:13:51.190Z,29.66
2022-08-24T11:14:51.192Z,29.63
2022-08-24T11:15:51.504Z,29.81
2022-08-24T11:16:55.783Z,29.95
2022-08-24T11:17:52.146Z,30.11
2022-08-24T11:18:51.873Z,30.15
2022-08-24T11:19:51.137Z,30.18
2022-08-24T11:20:51.134Z,30.16
2022-08-24T11:21:51.412Z,30.01
2022-08-24T11:22:51.104Z,29.99
2022-08-24T11:23:51.092Z,30.00
2022-08-24T11:24:51.080Z,30.10
2022-08-24T11:25:51.063Z,30.10
2022-08-24T11:26:53.844Z,30.30
2022-08-24T11:27:51.093Z,30.46
2022-08-24T11:28:51.045Z,30.49
2022-08-24T11:29:51.030Z,30.64
2022-08-24T11:30:51.909Z,30.67
2022-08-24T11:31:51.070Z,30.85
2022-08-24T11:32:50.985Z,30.90
2022-08-24T11:33:50.989Z,30.98
2022-08-24T11:34:51.921Z,31.07
2022-08-24T11:35:50.966Z,31.03
2022-08-24T11:36:50.943Z,31.07
2022-08-24T11:37:51.992Z,31.13
2022-08-24T11:38:50.942Z,31.18
2022-08-24T11:39:51.059Z,31.19
2022-08-24T11:40:50.955Z,31.19
2022-08-24T11:41:50.937Z,31.22
2022-08-24T11:42:50.887Z,31.22
2022-08-24T11:44:11.918Z,30.96
2022-08-24T11:44:57.414Z,30.93
2022-08-24T11:45:51.960Z,30.93
2022-08-24T11:46:50.960Z,30.93
2022-08-24T11:47:51.380Z,30.73
2022-08-24T11:48:57.384Z,30.70
2022-08-24T11:50:13.420Z,30.73
2022-08-24T11:50:50.826Z,30.86
2022-08-24T11:51:50.803Z,31.00
2022-08-24T11:52:51.176Z,31.00
2022-08-24T11:53:50.793Z,30.88
2022-08-24T11:54:50.773Z,30.97
2022-08-24T11:55:51.599Z,30.85
2022-08-24T11:56:51.742Z,31.07
2022-08-24T11:57:50.745Z,31.15
2022-08-24T11:58:50.775Z,31.09
2022-08-24T11:59:50.713Z,31.23
2022-08-24T12:01:14.395Z,31.20
2022-08-24T12:01:50.856Z,31.30
2022-08-24T12:02:50.825Z,31.38
2022-08-24T12:03:52.730Z,31.41
2022-08-24T12:05:11.669Z,31.57
2022-08-24T12:05:50.673Z,31.40
2022-08-24T12:06:55.717Z,31.59
2022-08-24T12:07:51.678Z,31.53
2022-08-24T12:08:56.675Z,31.46
2022-08-24T12:09:50.626Z,31.57
2022-08-24T12:10:50.634Z,31.60
2022-08-24T12:11:50.594Z,31.72
2022-08-24T12:12:50.583Z,31.79
2022-08-24T12:13:50.650Z,31.88
2022-08-24T12:14:52.667Z,31.91
2022-08-24T12:15:52.266Z,32.06
2022-08-24T12:16:50.576Z,32.06
2022-08-24T12:17:50.539Z,32.06
2022-08-24T12:19:11.524Z,32.05
2022-08-24T12:19:50.529Z,32.21
2022-08-24T12:20:51.498Z,32.29
2022-08-24T12:21:51.392Z,32.34
2022-08-24T12:22:50.467Z,32.49
2022-08-24T12:23:50.471Z,32.35
2022-08-24T12:24:50.453Z,32.36
2022-08-24T12:25:51.147Z,32.41
2022-08-24T12:26:50.457Z,32.43
2022-08-24T12:27:50.415Z,32.39
2022-08-24T12:28:54.271Z,32.13
2022-08-24T12:29:50.419Z,32.21
2022-08-24T12:30:51.460Z,32.22
2022-08-24T12:31:50.930Z,32.22
2022-08-24T12:32:50.392Z,32.12
2022-08-24T12:33:50.355Z,32.09
2022-08-24T12:34:50.340Z,32.10
2022-08-24T12:35:50.357Z,32.21
2022-08-24T12:36:50.317Z,32.13
2022-08-24T12:37:50.319Z,32.17
2022-08-24T12:38:50.322Z,32.14
2022-08-24T12:39:50.382Z,32.34
2022-08-24T12:40:50.337Z,32.32
2022-08-24T12:41:50.290Z,32.19
2022-08-24T12:42:52.600Z,32.34
2022-08-24T12:43:50.305Z,32.07
2022-08-24T12:44:50.253Z,31.99
2022-08-24T12:45:50.257Z,31.99
2022-08-24T12:46:50.268Z,32.24
2022-08-24T12:47:50.241Z,32.36
2022-08-24T12:48:50.208Z,32.36
2022-08-24T12:49:50.194Z,32.49
2022-08-24T12:50:50.234Z,32.68
2022-08-24T12:51:50.166Z,32.66
2022-08-24T12:52:50.184Z,32.72